Time;durP1;ratioP1;P1;durP2;ratioP2;P2;SDS_P1;SDS_P2;PMS_P1;PMS_P2;Temp;Humidity;BMP_temperature;BMP_pressure;BME280_temperature;BME280_humidity;BME280_pressure;Samples;Min_cycle;Max_cycle;Signal;HPM_P1;HPM_P2
2021/03/13 00:02:25;;;;;;;1.25;0.95;;;;;;;4.72;93.43;99370.56;4968019;28;20051;-50
2021/03/13 00:04:52;;;;;;;1.65;0.82;;;;;;;4.73;93.30;99375.66;4967589;28;20688;-55
2021/03/13 00:07:19;;;;;;;2.03;1.00;;;;;;;4.73;93.01;99375.66;4967383;28;20405;-55
2021/03/13 00:09:45;;;;;;;2.03;0.98;;;;;;;4.60;93.25;99364.31;4967738;28;20061;-54
2021/03/13 00:12:12;;;;;;;0.80;0.80;;;;;;;4.67;93.21;99367.00;4967618;28;20046;-55
2021/03/13 00:14:39;;;;;;;1.10;0.60;;;;;;;4.64;93.12;99364.41;4967643;28;20043;-49
2021/03/13 00:17:05;;;;;;;2.50;0.60;;;;;;;4.58;93.21;99362.56;4967388;28;20707;-54
2021/03/13 00:19:32;;;;;;;1.40;0.88;;;;;;;4.49;93.45;99360.63;4967364;28;20119;-52
2021/03/13 00:21:58;;;;;;;0.85;0.57;;;;;;;4.49;93.14;99368.25;4967607;28;20055;-56
2021/03/13 00:24:25;;;;;;;0.50;0.50;;;;;;;4.50;92.96;99364.03;4967808;28;20054;-51
2021/03/13 00:26:51;;;;;;;1.30;0.60;;;;;;;4.55;92.52;99377.69;4967434;28;20493;-52
2021/03/13 00:29:18;;;;;;;2.30;0.40;;;;;;;4.56;92.01;99371.78;4967450;28;20528;-54
2021/03/13 00:31:44;;;;;;;0.90;0.57;;;;;;;4.62;92.19;99371.94;4966867;28;20058;-53
2021/03/13 00:34:11;;;;;;;0.60;0.50;;;;;;;4.59;91.61;99377.81;4967381;28;20169;-52
2021/03/13 00:36:38;;;;;;;1.85;0.40;;;;;;;4.68;91.48;99379.75;4966842;28;20149;-50
2021/03/13 00:39:05;;;;;;;0.88;0.52;;;;;;;4.70;91.70;99378.09;4967318;28;20070;-54
2021/03/13 00:41:32;;;;;;;1.20;0.68;;;;;;;4.79;91.21;99378.34;4966896;28;20050;-53
2021/03/13 00:43:58;;;;;;;1.58;0.50;;;;;;;4.87;90.54;99386.19;4967236;28;20050;-52
2021/03/13 00:46:25;;;;;;;4.10;0.82;;;;;;;4.92;90.52;99382.09;4966849;28;20402;-54
2021/03/13 00:48:51;;;;;;;0.93;0.60;;;;;;;5.00;90.27;99385.72;4967222;28;20393;-53
2021/03/13 00:51:18;;;;;;;0.80;0.60;;;;;;;4.94;89.78;99377.91;4966977;28;20042;-53
2021/03/13 00:53:47;;;;;;;2.60;0.60;;;;;;;4.85;90.60;99380.19;4966629;28;20049;-55
2021/03/13 00:56:14;;;;;;;0.43;0.43;;;;;;;4.89;90.27;99373.53;4959110;28;20039;-54
2021/03/13 00:58:40;;;;;;;1.05;0.60;;;;;;;4.92;89.79;99378.69;4966734;28;20046;-51
2021/03/13 01:01:07;;;;;;;2.17;0.77;;;;;;;4.93;89.87;99372.81;4967071;28;20401;-54
2021/03/13 01:03:33;;;;;;;1.75;0.63;;;;;;;4.89;90.03;99365.94;4966763;28;20047;-52
2021/03/13 01:06:00;;;;;;;3.25;0.80;;;;;;;4.89;90.25;99371.00;4966027;28;20051;-52
2021/03/13 01:08:26;;;;;;;1.08;0.70;;;;;;;4.91;89.82;99374.47;4966951;28;20047;-51
2021/03/13 01:10:53;;;;;;;3.00;1.48;;;;;;;4.91;89.51;99369.38;4967822;28;20054;-55
2021/03/13 01:13:21;;;;;;;2.25;0.90;;;;;;;4.98;89.45;99381.41;4965874;28;20161;-50
2021/03/13 01:15:48;;;;;;;2.88;1.02;;;;;;;4.99;88.91;99367.88;4966347;28;20058;-55
2021/03/13 01:18:18;;;;;;;6.70;2.00;;;;;;;5.02;89.08;99378.13;4958946;28;20046;-53
2021/03/13 01:20:50;;;;;;;11.18;6.05;;;;;;;5.00;89.23;99373.03;4966181;28;20050;-52
2021/03/13 01:23:17;;;;;;;0.80;0.80;;;;;;;5.06;88.41;99385.00;4959422;28;20062;-56
2021/03/13 01:25:43;;;;;;;7.00;3.17;;;;;;;5.06;88.68;99379.94;4966151;28;20131;-52
2021/03/13 01:28:10;;;;;;;4.65;1.20;;;;;;;5.13;88.13;99371.69;4965794;28;20051;-52
2021/03/13 01:30:47;;;;;;;2.75;1.35;;;;;;;5.19;88.16;99371.81;4966460;28;20386;-55
2021/03/13 01:33:14;;;;;;;1.75;1.38;;;;;;;5.21;87.48;99361.69;4958998;28;20047;-53
2021/03/13 01:35:40;;;;;;;2.55;1.70;;;;;;;5.15;87.07;99354.78;4966741;28;20424;-56
2021/03/13 01:38:07;;;;;;;1.27;0.93;;;;;;;5.20;87.60;99365.06;4966375;28;20532;-56
2021/03/13 01:40:34;;;;;;;2.38;0.82;;;;;;;5.18;87.32;99359.97;4965942;28;20054;-54
2021/03/13 01:43:00;;;;;;;2.50;1.00;;;;;;;5.20;87.02;99349.84;4966252;28;20556;-49
2021/03/13 01:45:27;;;;;;;2.42;1.83;;;;;;;5.20;87.14;99353.22;4965375;28;20076;-53
2021/03/13 01:47:54;;;;;;;2.97;1.13;;;;;;;5.27;86.29;99354.22;4966489;28;20050;-52
2021/03/13 01:50:21;;;;;;;1.65;1.00;;;;;;;5.21;86.29;99354.94;4965831;28;20054;-52
2021/03/13 01:52:48;;;;;;;3.22;1.45;;;;;;;5.27;86.19;99354.22;4965969;28;20058;-52
2021/03/13 01:55:17;;;;;;;1.80;1.10;;;;;;;5.27;85.70;99346.63;4958423;28;20047;-51
2021/03/13 01:57:43;;;;;;;3.22;1.55;;;;;;;5.29;85.90;99350.06;4965620;28;20039;-48
2021/03/13 02:00:13;;;;;;;2.03;1.20;;;;;;;5.32;85.70;99356.09;4965326;28;20054;-55
2021/03/13 02:02:40;;;;;;;0.88;0.82;;;;;;;5.36;85.61;99352.81;4965578;28;20053;-53
2021/03/13 02:05:30;;;;;;;3.83;2.70;;;;;;;5.20;85.97;99357.44;4964694;28;20057;-52
2021/03/13 02:08:23;;;;;;;4.90;2.92;;;;;;;5.14;86.56;99345.47;4965451;28;20050;-54
2021/03/13 02:11:15;;;;;;;2.33;1.30;;;;;;;5.09;86.99;99347.03;4965307;28;20043;-54
2021/03/13 02:13:54;;;;;;;3.05;2.25;;;;;;;4.94;87.76;99344.94;4965204;28;20047;-55
2021/03/13 02:16:39;;;;;;;3.40;1.33;;;;;;;4.92;87.05;99343.19;4958448;28;20105;-52
2021/03/13 02:19:43;;;;;;;3.03;1.35;;;;;;;4.84;87.10;99340.44;4965414;28;20050;-54
2021/03/13 02:22:15;;;;;;;2.25;1.20;;;;;;;4.77;87.46;99343.66;4965612;28;20042;-48
2021/03/13 02:25:08;;;;;;;3.42;2.00;;;;;;;4.73;87.51;99350.31;4965886;28;20063;-47
2021/03/13 02:27:44;;;;;;;3.13;1.60;;;;;;;4.73;87.88;99345.25;4937213;28;20519;-51
2021/03/13 02:30:23;;;;;;;3.40;1.20;;;;;;;4.75;87.07;99352.88;4965256;28;20457;-54
2021/03/13 02:33:10;;;;;;;1.52;0.90;;;;;;;4.79;87.07;99347.94;4965033;28;20073;-53
2021/03/13 02:35:41;;;;;;;2.20;1.17;;;;;;;4.87;86.81;99348.16;4964516;28;20050;-53
2021/03/13 02:38:14;;;;;;;2.08;1.40;;;;;;;4.80;86.70;99354.72;4964926;28;20050;-52
2021/03/13 02:40:43;;;;;;;2.70;2.15;;;;;;;4.80;86.97;99354.72;4964902;28;20051;-55
2021/03/13 02:43:11;;;;;;;4.82;1.45;;;;;;;4.87;86.61;99362.50;4964451;28;20073;-50
2021/03/13 02:45:49;;;;;;;1.50;1.33;;;;;;;4.95;85.98;99359.38;4964620;28;20112;-54
2021/03/13 02:48:18;;;;;;;5.20;1.42;;;;;;;4.99;85.42;99371.31;4964912;28;20512;-46
2021/03/13 02:50:47;;;;;;;1.52;0.98;;;;;;;5.04;85.35;99362.16;4965562;28;20752;-50
2021/03/13 02:53:17;;;;;;;2.92;1.10;;;;;;;5.04;85.38;99356.22;4957221;28;20079;-54
2021/03/13 02:55:44;;;;;;;1.63;0.93;;;;;;;5.07;85.26;99353.72;4964360;28;20050;-54
2021/03/13 02:58:11;;;;;;;2.70;1.70;;;;;;;5.06;84.81;99359.63;4964269;28;20034;-52
2021/03/13 03:00:40;;;;;;;2.47;0.93;;;;;;;5.01;85.41;99346.84;4964269;28;20541;-53
2021/03/13 03:03:09;;;;;;;1.75;1.10;;;;;;;5.02;84.98;99347.69;4964972;28;20054;-49
2021/03/13 03:05:38;;;;;;;3.20;1.10;;;;;;;4.89;85.37;99341.44;4964424;28;20523;-48
2021/03/13 03:08:06;;;;;;;3.33;1.05;;;;;;;4.91;85.40;99344.88;4964350;28;20054;-53
2021/03/13 03:10:36;;;;;;;2.67;1.00;;;;;;;4.88;86.31;99349.00;4964438;28;20058;-49
2021/03/13 03:13:06;;;;;;;1.90;1.05;;;;;;;5.03;85.39;99349.41;4964754;28;20406;-51
2021/03/13 03:15:34;;;;;;;0.77;0.70;;;;;;;4.96;85.98;99356.00;4964521;28;20053;-48
2021/03/13 03:18:17;;;;;;;1.83;0.98;;;;;;;4.91;85.88;99349.94;4964680;28;20051;-57
2021/03/13 03:20:47;;;;;;;1.45;1.30;;;;;;;4.95;85.75;99356.81;4964464;28;20073;-49
2021/03/13 03:23:14;;;;;;;2.63;1.05;;;;;;;4.96;85.57;99347.53;4964421;28;20046;-53
2021/03/13 03:25:41;;;;;;;1.58;1.00;;;;;;;4.88;85.88;99349.84;4964344;28;20039;-53
2021/03/13 03:28:07;;;;;;;2.85;1.33;;;;;;;4.91;86.06;99355.03;4964737;28;20046;-47
2021/03/13 03:30:35;;;;;;;3.03;1.02;;;;;;;4.92;86.20;99351.66;4964485;28;20046;-53
2021/03/13 03:33:03;;;;;;;2.38;1.27;;;;;;;4.98;85.66;99356.88;4964557;28;20051;-52
2021/03/13 03:35:31;;;;;;;3.25;1.20;;;;;;;4.98;85.07;99353.50;4971536;28;20051;-56
2021/03/13 03:38:00;;;;;;;5.18;1.50;;;;;;;4.96;85.38;99353.47;4964247;28;20054;-51
2021/03/13 03:40:30;;;;;;;3.35;1.17;;;;;;;4.95;85.49;99356.81;4964438;28;20058;-52
2021/03/13 03:42:59;;;;;;;4.03;1.40;;;;;;;4.94;85.91;99355.09;4971586;28;20054;-48
2021/03/13 03:45:27;;;;;;;2.10;1.35;;;;;;;5.02;85.26;99350.22;4964161;28;20043;-49
2021/03/13 03:47:55;;;;;;;1.83;1.20;;;;;;;5.03;84.84;99351.94;4964029;28;20047;-51
2021/03/13 03:50:24;;;;;;;3.58;1.10;;;;;;;4.96;85.30;99342.47;4963980;28;20858;-52
2021/03/13 03:52:57;;;;;;;1.25;1.15;;;;;;;4.91;85.31;99346.56;4964341;28;20055;-53
2021/03/13 03:55:24;;;;;;;1.70;1.17;;;;;;;4.89;85.16;99338.03;4964290;28;20062;-53
2021/03/13 03:57:52;;;;;;;3.00;1.23;;;;;;;4.88;85.46;99336.31;4964188;28;20426;-50
2021/03/13 04:00:21;;;;;;;4.20;1.27;;;;;;;4.80;85.70;99331.88;4964179;28;20418;-50
2021/03/13 04:02:56;;;;;;;1.67;0.98;;;;;;;4.72;85.60;99338.47;4964445;28;20042;-55
2021/03/13 04:05:24;;;;;;;4.22;1.50;;;;;;;4.65;86.19;99323.03;4964221;28;20055;-56
2021/03/13 04:07:52;;;;;;;2.80;1.10;;;;;;;4.55;86.87;99332.06;4964411;28;20055;-53
2021/03/13 04:10:21;;;;;;;2.55;1.35;;;;;;;4.53;87.18;99326.97;4964623;28;20058;-53
2021/03/13 04:12:47;;;;;;;2.15;1.23;;;;;;;4.51;86.76;99325.19;4946913;28;20058;-49
2021/03/13 04:15:15;;;;;;;3.80;1.58;;;;;;;4.52;87.13;99334.50;4956355;28;20051;-51
2021/03/13 04:17:42;;;;;;;1.98;1.20;;;;;;;4.45;87.73;99318.28;4963869;28;20121;-50
2021/03/13 04:20:10;;;;;;;3.20;1.13;;;;;;;4.45;87.60;99322.50;4963665;28;20094;-51
2021/03/13 04:22:38;;;;;;;2.47;1.30;;;;;;;4.45;87.54;99322.50;4963781;28;20406;-50
2021/03/13 04:25:07;;;;;;;1.80;1.40;;;;;;;4.44;87.75;99326.69;4963675;28;20050;-56
2021/03/13 04:27:44;;;;;;;4.15;1.40;;;;;;;4.45;88.03;99328.41;4965300;28;20038;-50
2021/03/13 04:30:17;;;;;;;4.47;1.38;;;;;;;4.42;87.76;99327.47;4967093;28;20042;-55
2021/03/13 04:32:50;;;;;;;4.22;1.45;;;;;;;4.41;87.76;99329.13;4951640;28;20054;-55
2021/03/13 04:35:19;;;;;;;1.52;1.20;;;;;;;4.40;87.73;99334.16;4961020;28;20055;-53
2021/03/13 04:37:46;;;;;;;2.13;1.20;;;;;;;4.39;87.87;99329.91;4968411;28;20046;-55
2021/03/13 04:40:14;;;;;;;2.35;1.20;;;;;;;4.36;88.49;99322.22;4960869;28;20059;-53
2021/03/13 04:42:43;;;;;;;1.88;1.35;;;;;;;4.41;87.70;99333.34;4968018;28;20062;-55
2021/03/13 04:45:12;;;;;;;3.92;1.17;;;;;;;4.33;88.32;99328.06;4968248;28;20051;-55
2021/03/13 04:47:49;;;;;;;4.13;1.20;;;;;;;4.41;88.01;99328.28;4968730;28;20050;-48
2021/03/13 04:50:19;;;;;;;3.08;1.17;;;;;;;4.33;88.29;99331.44;4959781;28;20118;-56
2021/03/13 04:52:47;;;;;;;2.50;1.40;;;;;;;4.34;88.18;99318.00;4967810;28;20115;-54
2021/03/13 04:55:14;;;;;;;3.63;1.27;;;;;;;4.26;88.63;99314.38;4961081;28;20054;-52
2021/03/13 04:57:40;;;;;;;3.78;1.05;;;;;;;4.29;88.33;99316.97;4975438;28;20042;-53
2021/03/13 05:00:10;;;;;;;2.05;1.17;;;;;;;4.29;87.85;99316.97;4976527;28;20063;-49
2021/03/13 05:02:37;;;;;;;3.35;1.50;;;;;;;4.24;88.23;99318.50;4967787;28;20051;-51
2021/03/13 05:05:05;;;;;;;3.03;1.25;;;;;;;4.24;88.27;99313.44;4967931;28;20053;-51
2021/03/13 05:07:31;;;;;;;2.42;1.30;;;;;;;4.23;88.49;99310.88;4967358;28;20046;-53
2021/03/13 05:09:58;;;;;;;1.08;0.90;;;;;;;4.28;88.14;99309.34;4967747;28;20046;-52
2021/03/13 05:12:24;;;;;;;1.67;1.30;;;;;;;4.23;88.55;99313.41;4967285;28;20496;-55
2021/03/13 05:14:51;;;;;;;2.22;1.23;;;;;;;4.24;88.55;99305.00;4968000;28;20050;-56
2021/03/13 05:17:17;;;;;;;2.25;1.15;;;;;;;4.20;88.55;99295.56;4966857;28;20063;-55
2021/03/13 05:19:44;;;;;;;2.45;1.52;;;;;;;4.19;88.32;99292.19;4967538;28;20078;-55
2021/03/13 05:22:11;;;;;;;3.75;1.48;;;;;;;4.19;88.99;99294.72;4967108;28;20051;-50
2021/03/13 05:24:37;;;;;;;3.42;1.50;;;;;;;4.18;88.92;99292.16;4967465;28;20043;-50
2021/03/13 05:27:04;;;;;;;2.47;1.00;;;;;;;4.13;88.61;99299.63;4966936;28;20051;-54
2021/03/13 05:29:31;;;;;;;1.73;1.50;;;;;;;4.18;88.67;99294.69;4967329;28;20046;-52
2021/03/13 05:31:57;;;;;;;2.38;1.67;;;;;;;4.23;88.72;99285.53;4967716;28;20057;-52
2021/03/13 05:34:24;;;;;;;4.45;1.55;;;;;;;4.36;87.97;99281.69;4967094;28;20053;-51
2021/03/13 05:36:50;;;;;;;2.70;1.52;;;;;;;4.45;87.66;99285.31;4967353;28;20092;-54
2021/03/13 05:39:17;;;;;;;2.08;1.50;;;;;;;4.50;88.08;99281.25;4966403;28;20172;-51
2021/03/13 05:41:46;;;;;;;2.90;1.15;;;;;;;4.59;86.92;99270.50;4967497;28;20465;-56
2021/03/13 05:44:13;;;;;;;4.63;1.40;;;;;;;4.68;87.56;99272.41;4967181;28;20153;-53
2021/03/13 05:46:44;;;;;;;2.95;1.30;;;;;;;4.73;86.83;99269.19;4966697;28;20869;-51
2021/03/13 05:49:12;;;;;;;2.08;1.40;;;;;;;4.74;86.28;99268.34;4967678;28;20129;-54
2021/03/13 05:51:44;;;;;;;1.77;1.10;;;;;;;4.95;86.49;99267.19;4960669;28;20043;-53
2021/03/13 05:54:17;;;;;;;1.85;1.02;;;;;;;4.89;86.18;99262.81;4961771;28;20049;-53
2021/03/13 05:56:44;;;;;;;2.75;1.30;;;;;;;5.09;85.20;99271.78;4962063;28;20042;-51
2021/03/13 05:59:13;;;;;;;1.27;1.00;;;;;;;5.15;84.74;99255.00;4962685;28;20054;-57
2021/03/13 06:01:40;;;;;;;2.20;1.38;;;;;;;5.33;84.44;99261.34;4965161;28;20496;-54
2021/03/13 06:04:23;;;;;;;1.27;0.93;;;;;;;5.39;83.94;99255.56;4962315;28;20109;-54
2021/03/13 06:06:51;;;;;;;1.55;1.13;;;;;;;5.53;83.85;99253.34;4965340;28;20059;-52
2021/03/13 06:09:19;;;;;;;1.98;1.27;;;;;;;5.59;83.49;99254.34;4965572;28;20055;-51
2021/03/13 06:11:46;;;;;;;1.75;1.23;;;;;;;5.53;83.24;99256.72;4966096;28;20047;-54
2021/03/13 06:14:12;;;;;;;1.33;1.23;;;;;;;5.62;82.90;99248.47;4966775;28;20050;-54
2021/03/13 06:16:39;;;;;;;2.22;1.42;;;;;;;5.71;82.79;99251.22;4965123;28;20062;-54
2021/03/13 06:19:05;;;;;;;1.70;0.98;;;;;;;5.79;82.32;99249.69;4965141;28;20552;-55
2021/03/13 06:21:35;;;;;;;3.58;1.00;;;;;;;5.73;81.97;99241.97;4964850;28;20049;-53
2021/03/13 06:24:03;;;;;;;2.10;1.10;;;;;;;5.77;82.06;99236.09;4965019;28;20074;-55
2021/03/13 06:26:50;;;;;;;1.45;0.90;;;;;;;5.82;82.00;99238.72;4964838;28;20046;-55
2021/03/13 06:29:17;;;;;;;3.30;1.40;;;;;;;6.00;81.32;99233.22;4957941;28;20051;-54
2021/03/13 06:31:43;;;;;;;1.40;1.10;;;;;;;6.22;79.91;99232.81;4966176;28;20051;-52
2021/03/13 06:34:26;;;;;;;1.42;0.95;;;;;;;6.25;79.37;99237.13;4965685;28;20485;-54
2021/03/13 06:37:28;;;;;;;1.20;0.82;;;;;;;6.29;78.82;99231.28;4966070;28;20043;-54
2021/03/13 06:39:56;;;;;;;2.60;0.90;;;;;;;6.33;78.62;99236.44;4965971;28;20906;-51
2021/03/13 06:42:27;;;;;;;4.20;1.50;;;;;;;6.42;78.28;99229.78;4965916;28;20457;-50
2021/03/13 06:45:03;;;;;;;4.10;0.98;;;;;;;6.51;77.72;99235.03;4965323;28;20833;-52
2021/03/13 06:47:31;;;;;;;2.00;1.10;;;;;;;6.58;77.51;99231.81;4965500;28;20057;-52
2021/03/13 06:50:29;;;;;;;2.53;0.82;;;;;;;6.66;77.59;99237.03;4965830;28;20843;-55
2021/03/13 06:53:09;;;;;;;1.70;0.75;;;;;;;6.68;77.00;99236.22;4966152;28;20049;-50
2021/03/13 06:55:36;;;;;;;5.05;1.20;;;;;;;6.60;76.62;99228.44;4965289;28;20046;-54
2021/03/13 06:58:14;;;;;;;1.95;1.00;;;;;;;6.66;76.75;99229.41;4965808;28;20058;-52
2021/03/13 07:00:43;;;;;;;3.33;1.00;;;;;;;6.51;77.09;99227.41;4965512;28;20054;-53
2021/03/13 07:03:14;;;;;;;1.38;1.10;;;;;;;6.66;76.55;99224.31;4965375;28;20615;-52
2021/03/13 07:05:45;;;;;;;3.60;1.55;;;;;;;6.69;76.86;99222.66;4959615;28;20059;-54
2021/03/13 07:08:28;;;;;;;2.92;1.50;;;;;;;6.70;76.51;99216.78;4962060;28;20058;-55
2021/03/13 07:11:04;;;;;;;2.10;1.30;;;;;;;6.81;76.20;99216.94;4963298;28;20815;-50
2021/03/13 07:13:38;;;;;;;1.98;1.20;;;;;;;6.85;76.17;99214.47;4964940;28;20046;-52
2021/03/13 07:16:23;;;;;;;2.58;1.40;;;;;;;6.92;75.94;99214.56;4964592;28;20061;-53
2021/03/13 07:18:55;;;;;;;1.70;1.15;;;;;;;6.87;76.02;99212.81;4965102;28;20118;-52
2021/03/13 07:21:22;;;;;;;1.67;1.33;;;;;;;6.93;76.14;99198.47;4964581;28;20057;-51
2021/03/13 07:23:54;;;;;;;3.53;1.35;;;;;;;7.00;76.57;99211.31;4959684;28;20063;-49
2021/03/13 07:26:24;;;;;;;1.88;1.27;;;;;;;6.91;77.15;99208.63;4959795;28;20051;-50
2021/03/13 07:28:58;;;;;;;4.05;1.48;;;;;;;6.84;78.29;99204.25;4961821;28;20059;-46
2021/03/13 07:31:27;;;;;;;3.22;1.70;;;;;;;7.00;78.84;99205.38;4964304;28;20039;-48
2021/03/13 07:33:58;;;;;;;2.67;1.88;;;;;;;6.82;80.39;99199.16;4958553;28;20097;-46
2021/03/13 07:36:26;;;;;;;2.00;1.65;;;;;;;6.77;81.13;99198.22;4964843;28;20096;-52
2021/03/13 07:39:01;;;;;;;2.10;1.63;;;;;;;6.98;81.33;99194.31;4962255;28;20047;-47
2021/03/13 07:41:35;;;;;;;4.45;1.80;;;;;;;6.92;82.01;99191.66;4961838;28;20043;-48
2021/03/13 07:44:04;;;;;;;6.93;2.05;;;;;;;6.85;83.73;99188.19;4961922;28;20055;-47
2021/03/13 07:46:33;;;;;;;2.60;1.70;;;;;;;6.96;83.10;99193.44;4964697;28;20051;-46
2021/03/13 07:49:00;;;;;;;2.70;1.83;;;;;;;6.80;84.41;99180.47;4965000;28;20054;-49
2021/03/13 07:51:27;;;;;;;4.00;1.73;;;;;;;6.93;83.88;99181.50;4965010;28;20047;-48
2021/03/13 07:53:54;;;;;;;4.85;1.67;;;;;;;6.71;84.97;99176.94;4964831;28;20050;-49
2021/03/13 07:56:22;;;;;;;3.35;1.75;;;;;;;6.98;84.66;99176.47;4964525;28;20525;-50
2021/03/13 07:58:48;;;;;;;4.68;3.25;;;;;;;6.94;85.13;99173.06;4964332;28;20055;-46
2021/03/13 08:01:15;;;;;;;2.78;1.63;;;;;;;6.82;84.89;99171.16;4957362;28;20054;-50
2021/03/13 08:03:45;;;;;;;3.45;2.00;;;;;;;6.77;85.58;99171.94;4967562;28;20046;-50
2021/03/13 08:06:14;;;;;;;3.83;2.47;;;;;;;6.59;86.66;99162.31;4968436;28;20070;-50
2021/03/13 08:08:41;;;;;;;5.07;2.25;;;;;;;6.50;86.67;99160.47;4968532;28;20054;-45
2021/03/13 08:11:13;;;;;;;3.97;1.83;;;;;;;6.44;86.67;99152.72;4968245;28;20050;-47
2021/03/13 08:13:40;;;;;;;4.75;2.50;;;;;;;6.41;88.58;99146.72;4968583;28;20047;-47
2021/03/13 08:16:11;;;;;;;3.63;2.60;;;;;;;6.47;90.15;99147.72;4961420;28;20588;-49
2021/03/13 08:18:43;;;;;;;6.60;3.05;;;;;;;6.38;90.78;99143.31;4973738;28;20110;-51
2021/03/13 08:21:19;;;;;;;3.33;2.30;;;;;;;6.11;93.41;99141.13;4968316;28;20046;-43
2021/03/13 08:23:51;;;;;;;4.68;2.50;;;;;;;6.11;94.01;99133.50;4966704;28;20057;-44
2021/03/13 08:26:19;;;;;;;4.53;2.95;;;;;;;6.04;95.51;99118.13;4959874;28;20051;-48
2021/03/13 08:28:49;;;;;;;4.75;2.80;;;;;;;6.06;95.68;99119.88;4963716;28;20062;-47
2021/03/13 08:31:22;;;;;;;3.50;2.83;;;;;;;6.12;96.58;99107.28;4967238;28;20146;-50
2021/03/13 08:33:53;;;;;;;5.10;2.92;;;;;;;6.14;96.27;99102.19;4967096;28;20105;-49
2021/03/13 08:36:25;;;;;;;3.85;2.38;;;;;;;6.07;97.03;99095.31;4956787;28;20555;-43
2021/03/13 08:38:59;;;;;;;6.55;3.20;;;;;;;6.14;98.56;99092.03;4967801;28;20054;-45
2021/03/13 08:41:41;;;;;;;3.58;3.28;;;;;;;6.34;97.97;99089.84;4948498;28;20521;-43
2021/03/13 08:44:32;;;;;;;4.07;2.95;;;;;;;6.22;97.68;99082.88;4967544;28;20049;-49
2021/03/13 08:47:07;;;;;;;4.93;2.65;;;;;;;6.34;97.77;99079.69;4968015;28;20094;-45
2021/03/13 08:49:37;;;;;;;4.45;4.05;;;;;;;6.38;98.39;99061.13;4974123;28;20041;-46
2021/03/13 08:52:09;;;;;;;4.57;3.45;;;;;;;6.15;97.67;99068.38;4966903;28;20462;-47
2021/03/13 08:54:41;;;;;;;5.75;4.30;;;;;;;6.37;98.45;99057.69;4966568;28;20066;-46
2021/03/13 08:57:16;;;;;;;7.20;4.78;;;;;;;6.54;98.55;99042.72;4964016;28;20377;-46
2021/03/13 08:59:55;;;;;;;7.72;5.28;;;;;;;6.48;99.18;99045.19;4977181;28;20054;-49
2021/03/13 09:02:35;;;;;;;6.22;5.22;;;;;;;6.58;99.33;99047.03;4959841;28;20560;-49
2021/03/13 09:05:15;;;;;;;7.68;4.45;;;;;;;6.58;99.25;99036.84;4973737;28;20074;-47
2021/03/13 09:07:46;;;;;;;8.02;4.13;;;;;;;6.60;98.84;99027.53;4974479;28;20051;-46
2021/03/13 09:10:13;;;;;;;6.35;4.50;;;;;;;6.67;97.95;99013.25;4967632;28;20058;-47
2021/03/13 09:12:42;;;;;;;5.78;3.70;;;;;;;6.77;96.76;99011.69;4967247;28;20051;-52
2021/03/13 09:15:11;;;;;;;4.68;4.25;;;;;;;6.57;97.77;99003.78;4967896;28;20050;-52
2021/03/13 09:17:38;;;;;;;3.47;3.15;;;;;;;6.63;97.80;98996.22;4967507;28;20046;-48
2021/03/13 09:20:15;;;;;;;5.57;3.08;;;;;;;6.66;98.49;98993.75;4966185;28;20058;-51
2021/03/13 09:22:47;;;;;;;5.72;3.10;;;;;;;6.72;99.10;98991.25;4962813;28;20509;-48
2021/03/13 09:25:20;;;;;;;4.50;3.30;;;;;;;6.75;98.79;98982.81;4967045;28;20058;-48
2021/03/13 09:27:50;;;;;;;7.75;2.80;;;;;;;6.78;98.10;98970.13;4967186;28;20501;-55
2021/03/13 09:30:23;;;;;;;5.10;3.20;;;;;;;6.72;97.67;98959.91;4959915;28;20046;-53
2021/03/13 09:32:51;;;;;;;4.55;3.80;;;;;;;6.48;99.86;98950.25;4967728;28;20053;-53
2021/03/13 09:35:23;;;;;;;5.05;3.45;;;;;;;6.64;100.00;98944.53;4958872;28;20046;-52
2021/03/13 09:37:50;;;;;;;5.40;3.17;;;;;;;6.73;99.69;98939.56;4965612;28;20756;-51
2021/03/13 09:40:19;;;;;;;4.32;3.00;;;;;;;6.60;99.73;98930.06;4964812;28;20046;-46
2021/03/13 09:42:47;;;;;;;4.95;3.33;;;;;;;6.73;99.69;98929.38;4964960;28;20054;-49
2021/03/13 09:45:22;;;;;;;3.58;2.92;;;;;;;6.44;100.00;98911.22;4957400;28;20042;-54
2021/03/13 09:47:54;;;;;;;3.30;3.00;;;;;;;6.53;100.00;98913.03;4965320;28;20131;-52
2021/03/13 09:50:27;;;;;;;3.25;2.95;;;;;;;6.74;99.37;98913.28;4958638;28;20133;-48
2021/03/13 09:52:54;;;;;;;4.63;3.38;;;;;;;6.57;100.00;98909.69;4964897;28;20047;-58
2021/03/13 09:55:25;;;;;;;3.97;2.72;;;;;;;6.75;99.93;98906.50;4965436;28;20460;-53
2021/03/13 09:57:54;;;;;;;3.47;2.88;;;;;;;6.81;98.61;98902.34;4965883;28;20050;-56
2021/03/13 10:00:25;;;;;;;4.15;2.35;;;;;;;6.85;97.97;98899.03;4966595;28;20042;-53
2021/03/13 10:02:55;;;;;;;4.03;2.63;;;;;;;7.09;98.66;98882.31;4966295;28;20061;-51
2021/03/13 10:05:25;;;;;;;3.13;2.08;;;;;;;6.80;98.33;98877.75;4965634;28;20054;-47
2021/03/13 10:07:52;;;;;;;2.30;2.10;;;;;;;7.13;98.46;98877.28;4966333;28;20527;-46
2021/03/13 10:10:24;;;;;;;3.35;2.40;;;;;;;7.20;97.72;98867.13;4966227;28;20253;-49
2021/03/13 10:12:53;;;;;;;3.60;1.70;;;;;;;7.29;98.15;98862.13;4966563;28;20069;-49
2021/03/13 10:15:27;;;;;;;2.70;1.77;;;;;;;7.14;97.19;98853.53;4966647;28;20062;-50
2021/03/13 10:17:56;;;;;;;3.25;1.77;;;;;;;7.07;98.54;98854.31;4966251;28;20057;-51
2021/03/13 10:20:26;;;;;;;1.88;1.67;;;;;;;7.01;98.18;98843.19;4965904;28;20057;-52
2021/03/13 10:22:53;;;;;;;2.42;1.48;;;;;;;7.21;98.69;98838.28;4965777;28;20216;-51
2021/03/13 10:25:20;;;;;;;3.45;2.20;;;;;;;7.42;98.00;98840.19;4965186;28;20058;-53
2021/03/13 10:27:46;;;;;;;2.45;1.40;;;;;;;7.52;96.96;98831.78;4965027;28;20047;-53
2021/03/13 10:30:13;;;;;;;1.55;1.40;;;;;;;7.48;97.39;98817.31;4965573;28;20078;-51
2021/03/13 10:32:47;;;;;;;1.40;1.15;;;;;;;7.55;96.70;98819.09;4965873;28;20050;-48
2021/03/13 10:35:19;;;;;;;2.45;1.38;;;;;;;7.70;95.91;98808.16;4957938;28;20516;-51
2021/03/13 10:37:52;;;;;;;2.75;1.20;;;;;;;7.64;96.24;98798.78;4965842;28;20505;-55
2021/03/13 10:40:34;;;;;;;3.30;1.40;;;;;;;7.67;96.52;98798.78;4965554;28;20051;-55
2021/03/13 10:43:56;;;;;;;1.42;1.00;;;;;;;7.57;95.54;98794.47;4962328;28;20312;-53
2021/03/13 10:46:27;;;;;;;0.90;0.88;;;;;;;7.57;96.61;98792.75;4900169;29;20383;-49
2021/03/13 10:49:02;;;;;;;1.00;0.90;;;;;;;7.50;96.17;98780.84;4949461;28;20065;-53
2021/03/13 10:51:41;;;;;;;1.00;0.90;;;;;;;7.18;97.21;98767.03;4962975;28;20508;-51
2021/03/13 10:54:25;;;;;;;1.75;1.10;;;;;;;7.35;98.29;98771.41;4965262;28;20130;-54
2021/03/13 10:56:52;;;;;;;1.08;0.90;;;;;;;7.45;96.99;98751.97;4954569;28;20051;-49
2021/03/13 10:59:33;;;;;;;1.30;1.17;;;;;;;7.50;98.60;98745.19;4965099;28;20043;-53
2021/03/13 11:02:00;;;;;;;1.40;1.30;;;;;;;7.56;97.84;98741.84;4964958;28;20056;-51
2021/03/13 11:04:27;;;;;;;1.67;1.58;;;;;;;7.74;96.73;98738.53;4959401;28;20124;-45
2021/03/13 11:06:54;;;;;;;2.22;1.73;;;;;;;7.68;96.55;98734.28;4955552;28;20051;-49
2021/03/13 11:09:24;;;;;;;5.10;1.50;;;;;;;7.91;95.75;98729.31;4955127;28;20053;-50
2021/03/13 11:11:51;;;;;;;3.13;1.10;;;;;;;7.86;95.27;98728.44;4959560;28;20458;-51
2021/03/13 11:14:18;;;;;;;0.82;0.80;;;;;;;7.88;95.24;98724.19;4956269;28;20043;-50
2021/03/13 11:16:46;;;;;;;1.13;1.00;;;;;;;7.78;95.92;98718.19;4958212;28;20050;-47
2021/03/13 11:19:14;;;;;;;0.82;0.70;;;;;;;8.02;94.82;98719.13;4957279;28;20051;-56
2021/03/13 11:21:41;;;;;;;1.17;0.98;;;;;;;8.18;93.74;98720.91;4956756;28;20434;-51
2021/03/13 11:24:08;;;;;;;2.25;0.85;;;;;;;8.19;92.54;98721.75;4959122;28;20142;-52
2021/03/13 11:26:35;;;;;;;1.45;0.80;;;;;;;8.26;92.30;98705.63;4957570;28;20059;-56
2021/03/13 11:29:02;;;;;;;0.90;0.70;;;;;;;8.23;91.11;98711.59;4954555;28;20497;-48
2021/03/13 11:31:28;;;;;;;1.00;0.70;;;;;;;8.45;92.19;98704.00;4954491;28;20047;-49
2021/03/13 11:33:55;;;;;;;0.88;0.80;;;;;;;8.35;92.33;98696.28;4961749;28;20413;-53
2021/03/13 11:36:22;;;;;;;1.08;0.82;;;;;;;8.54;91.12;98698.91;4955597;28;20051;-52
2021/03/13 11:38:48;;;;;;;4.03;1.08;;;;;;;8.67;89.97;98686.19;4962039;28;20043;-54
2021/03/13 11:41:16;;;;;;;2.20;1.80;;;;;;;8.82;89.53;98687.03;4960070;28;20059;-55
2021/03/13 11:43:43;;;;;;;0.85;0.80;;;;;;;8.87;88.90;98680.22;4960714;28;20478;-50
2021/03/13 11:46:14;;;;;;;1.88;0.90;;;;;;;9.05;87.72;98679.38;4963234;28;20042;-51
2021/03/13 11:48:42;;;;;;;1.88;0.88;;;;;;;9.13;86.93;98665.75;4963203;28;20049;-53
2021/03/13 11:51:09;;;;;;;1.20;1.10;;;;;;;9.48;86.32;98674.22;4963140;28;20054;-47
2021/03/13 11:53:36;;;;;;;1.77;0.60;;;;;;;9.48;83.38;98659.75;4960392;28;20054;-51
2021/03/13 11:56:03;;;;;;;2.03;0.80;;;;;;;9.46;83.07;98656.31;4962525;28;20086;-52
2021/03/13 11:58:30;;;;;;;2.00;0.90;;;;;;;9.91;82.83;98659.59;4962011;28;20050;-51